Latest Weather Observations for Geelong Racecourse

IDV60801

Issued at 6:12 pm EST Monday 10 August 2020 (issued every 10 minutes, with the page automatically refreshed every 10 minutes)

About weather observations | Map of weather stations | Latest weather observations for VIC | Other Formats
Station Details ID: 087184 Name: GEELONG RACECOURSE Lat: -38.17 Lon: 144.38 Height: 12.9 m
Data from the previous 72 hours. | See also: Recent months at Geelong Racecourse
Date/Time
EST
Temp
°C
App
Temp
°C
Dew
Point
°C
Rel
Hum
%
Delta-T
°C
Wind Press
QNH
hPa
Press
MSL
hPa
Rain since
9am
mm
Dir  Spd
km/h
Gust
km/h
Spd
kts
Gust
kts
10/06:00pm 10.6 9.9 6.9 78 1.7 CALM 0 0 0 0 1019.0 1019.0 0.0
10/05:30pm 12.1 10.3 7.0 71 2.4 ENE 6 9 3 5 1019.1 1019.1 0.0
10/05:00pm 13.1 11.2 7.5 69 2.7 ENE 7 9 4 5 1019.1 1019.1 0.0
10/04:30pm 13.5 11.3 7.7 68 2.9 E 9 13 5 7 1019.3 1019.3 0.0
10/04:00pm 13.8 11.4 7.1 64 3.3 NE 9 13 5 7 1019.5 1019.5 0.0
10/03:30pm 13.9 11.5 7.2 64 3.3 NNE 9 13 5 7 1020.1 1020.1 0.0
10/03:00pm 13.9 11.3 7.9 67 3.0 NNE 11 15 6 8 1020.4 1020.4 0.0
10/02:30pm 14.0 10.7 8.2 68 2.9 NNE 15 20 8 11 1020.5 1020.5 0.0
10/02:00pm 14.8 12.4 6.9 59 3.8 E 9 15 5 8 1020.8 1020.8 0.0
10/01:30pm 14.5 12.6 6.8 60 3.7 ENE 6 9 3 5 1021.1 1021.1 0.0
10/01:00pm 13.9 11.8 8.1 68 2.9 NNE 9 13 5 7 1021.6 1021.6 0.0
10/12:30pm 13.9 11.8 8.1 68 2.9 NE 9 17 5 9 1021.8 1021.8 0.0
10/12:00pm 13.7 11.3 8.5 71 2.6 NNE 11 15 6 8 1022.5 1022.5 0.0
10/11:30am 13.5 11.4 8.1 70 2.7 ENE 9 17 5 9 1023.0 1023.0 0.0
10/11:00am 12.7 10.7 8.6 76 2.0 ENE 9 17 5 9 1023.3 1023.3 0.0
10/10:30am 12.4 9.7 7.5 72 2.4 E 11 17 6 9 1023.4 1023.4 0.0
10/10:00am 12.1 10.0 8.4 78 1.8 ESE 9 15 5 8 1023.5 1023.5 0.0
10/09:30am 11.3 9.4 9.2 87 1.0 SE 9 15 5 8 1023.8 1023.8 0.0
10/09:00am 10.4 8.8 8.8 90 0.8 SE 7 11 4 6 1023.9 1023.9 0.2
10/08:30am 8.3 7.2 8.3 100 0.0 SE 4 7 2 4 1023.7 1023.7 0.2
10/08:00am 5.6 4.6 5.6 100 0.0 CALM 0 2 0 1 1023.4 1023.4 0.2
10/07:30am 4.5 3.3 4.4 99 0.0 CALM 0 0 0 0 1023.1 1023.1 0.2
10/07:00am 5.7 3.9 5.6 99 0.0 SSE 4 6 2 3 1022.9 1022.9 0.2
10/06:30am 5.9 4.2 5.9 100 0.0 SSE 4 6 2 3 1022.5 1022.5 0.2
10/06:00am 5.2 3.3 5.1 99 0.0 S 4 4 2 2 1022.4 1022.4 0.2
10/05:30am 5.2 3.7 5.1 99 0.0 S 2 4 1 2 1022.3 1022.3 0.2
10/05:00am 5.4 3.5 5.1 98 0.1 WSW 4 6 2 3 1022.4 1022.4 0.2
10/04:30am 6.7 4.5 6.3 97 0.2 SSE 7 9 4 5 1022.4 1022.4 0.2
10/04:00am 6.4 4.4 6.3 99 0.0 SSE 6 7 3 4 1022.2 1022.2 0.2
10/03:30am 6.5 4.7 5.5 93 0.4 SSW 4 4 2 2 1022.1 1022.1 0.2
10/03:00am 8.0 6.1 6.8 92 0.6 SE 6 7 3 4 1022.2 1022.2 0.2
10/02:30am 8.1 6.1 6.9 92 0.6 SE 7 9 4 5 1022.0 1022.0 0.2
10/02:00am 8.2 6.1 6.8 91 0.6 SE 7 9 4 5 1022.2 1022.2 0.2
10/01:30am 8.3 6.4 6.6 89 0.8 SE 6 13 3 7 1022.2 1022.2 0.2
10/01:00am 8.7 6.7 7.2 90 0.7 ESE 7 11 4 6 1022.3 1022.3 0.2
10/12:30am 8.6 6.6 7.1 90 0.7 SE 7 9 4 5 1022.4 1022.4 0.2
10/12:00am 8.9 6.9 7.0 88 0.9 SE 7 11 4 6 1022.4 1022.4 0.2
 
Date/Time
EST
Temp
°C
App
Temp
°C
Dew
Point
°C
Rel
Hum
%
Delta-T
°C
Wind Press
QNH
hPa
Press
MSL
hPa
Rain since
9am
mm
Dir  Spd
km/h
Gust
km/h
Spd
kts
Gust
kts
09/11:30pm 8.8 6.8 7.1 89 0.8 SE 7 11 4 6 1022.5 1022.5 0.2
09/11:00pm 8.9 7.1 7.2 89 0.8 ESE 6 9 3 5 1022.4 1022.4 0.2
09/10:30pm 9.3 7.4 7.6 89 0.8 SE 7 13 4 7 1022.4 1022.4 0.2
09/10:00pm 9.7 7.9 7.8 88 0.9 SE 7 13 4 7 1022.5 1022.5 0.2
09/09:30pm 10.0 7.9 8.3 89 0.8 SE 9 17 5 9 1022.4 1022.4 0.2
09/09:00pm 10.1 7.6 8.2 88 0.9 SE 11 19 6 10 1022.3 1022.3 0.2
09/08:30pm 9.6 7.8 8.0 90 0.8 SSE 7 11 4 6 1022.3 1022.3 0.2
09/08:00pm 10.4 7.9 8.3 87 1.0 SE 11 17 6 9 1022.1 1022.1 0.2
09/07:30pm 10.7 7.5 8.3 85 1.2 SE 15 20 8 11 1022.3 1022.3 0.2
09/07:00pm 10.8 7.2 8.4 85 1.2 SSE 17 24 9 13 1022.2 1022.2 0.2
09/06:30pm 10.9 7.7 8.5 85 1.2 SE 15 22 8 12 1021.9 1021.9 0.2
09/06:00pm 11.0 7.4 8.4 84 1.3 SSE 17 30 9 16 1021.5 1021.5 0.2
09/05:30pm 11.5 7.6 8.5 82 1.5 SSE 19 30 10 16 1021.2 1021.2 0.2
09/05:00pm 12.0 8.1 8.7 80 1.6 SSE 19 28 10 15 1020.8 1020.8 0.2
09/04:30pm 12.4 7.9 8.5 77 1.9 SSE 22 32 12 17 1020.5 1020.5 0.2
09/04:00pm 13.1 8.7 8.8 75 2.2 SE 22 35 12 19 1020.2 1020.2 0.2
09/03:30pm 13.3 9.3 9.0 75 2.2 SE 20 30 11 16 1020.0 1020.0 0.2
09/03:00pm 13.6 8.8 8.7 72 2.5 SE 24 37 13 20 1020.0 1020.0 0.2
09/02:30pm 13.8 8.6 8.8 72 2.5 SE 26 37 14 20 1020.0 1020.0 0.2
09/02:00pm 14.0 9.3 9.2 73 2.4 SE 24 35 13 19 1020.2 1020.2 0.2
09/01:30pm 13.8 9.4 9.0 73 2.4 SE 22 32 12 17 1020.3 1020.3 0.2
09/01:00pm 13.2 8.4 8.7 74 2.2 SE 24 37 13 20 1020.5 1020.5 0.2
09/12:30pm 13.3 9.0 9.2 76 2.1 SE 22 35 12 19 1020.7 1020.7 0.0
09/12:00pm 13.0 8.3 9.3 78 1.9 SE 24 35 13 19 1021.0 1021.0 0.0
09/11:30am 13.2 9.3 9.6 79 1.8 SSE 20 30 11 16 1021.1 1021.1 0.0
09/11:00am 12.8 8.9 9.4 80 1.7 SE 20 32 11 17 1021.3 1021.3 0.0
09/10:30am 12.5 8.9 9.9 84 1.3 SE 19 28 10 15 1021.3 1021.3 0.0
09/10:00am 11.7 9.2 9.6 87 1.1 SE 13 26 7 14 1021.1 1021.1 0.0
09/09:30am 11.7 8.3 9.1 84 1.3 SE 17 28 9 15 1021.0 1021.0 0.0
09/09:00am 11.3 8.2 9.0 86 1.1 SE 15 20 8 11 1020.9 1020.9 1.6
09/08:30am 10.7 8.0 9.0 89 0.8 SE 13 20 7 11 1020.6 1020.6 1.6
09/08:00am 9.7 7.7 8.5 92 0.6 SE 9 15 5 8 1020.4 1020.4 1.6
09/07:30am 9.1 6.6 8.3 95 0.4 SE 11 15 6 8 1020.2 1020.2 1.6
09/07:00am 9.7 7.0 8.9 95 0.4 SE 13 20 7 11 1020.1 1020.1 1.6
09/06:30am 10.0 7.1 8.1 88 0.9 SSE 13 19 7 10 1019.9 1019.9 1.4
09/06:00am 9.9 7.0 8.2 89 0.8 SE 13 20 7 11 1019.6 1019.6 1.4
09/05:30am 10.0 7.0 7.9 87 1.0 SE 13 19 7 10 1019.4 1019.4 1.4
09/05:00am 10.0 7.5 8.3 89 0.8 SE 11 15 6 8 1019.4 1019.4 1.4
09/04:30am 10.4 6.8 8.3 87 1.0 SE 17 26 9 14 1019.2 1019.2 1.4
09/04:00am 10.5 7.0 8.6 88 0.9 SE 17 26 9 14 1019.0 1019.0 1.4
09/03:30am 10.2 7.3 8.3 88 0.9 SE 13 20 7 11 1018.9 1018.9 1.4
09/03:00am 10.4 7.2 8.3 87 1.0 SE 15 22 8 12 1018.7 1018.7 1.4
09/02:30am 10.5 6.9 8.3 86 1.1 SE 17 28 9 15 1018.7 1018.7 1.4
09/02:00am 10.7 6.7 8.3 85 1.2 SE 19 28 10 15 1018.7 1018.7 1.4
09/01:30am 10.9 6.7 8.3 84 1.3 SE 20 30 11 16 1018.7 1018.7 1.4
09/01:00am 11.1 7.9 8.5 84 1.3 SE 15 24 8 13 1018.8 1018.8 1.4
09/12:30am 11.2 7.0 8.4 83 1.4 SE 20 33 11 18 1018.8 1018.8 1.4
09/12:00am 11.2 7.2 8.4 83 1.4 SE 19 28 10 15 1018.9 1018.9 1.4
 
Date/Time
EST
Temp
°C
App
Temp
°C
Dew
Point
°C
Rel
Hum
%
Delta-T
°C
Wind Press
QNH
hPa
Press
MSL
hPa
Rain since
9am
mm
Dir  Spd
km/h
Gust
km/h
Spd
kts
Gust
kts
08/11:30pm 11.1 7.5 8.5 84 1.3 SE 17 26 9 14 1018.9 1018.9 1.4
08/11:00pm 11.0 7.8 8.6 85 1.2 SE 15 22 8 12 1018.9 1018.9 1.4
08/10:30pm 11.0 8.6 8.6 85 1.2 SE 11 20 6 11 1018.8 1018.8 1.4
08/10:00pm 11.1 8.7 8.7 85 1.2 SE 11 17 6 9 1018.8 1018.8 1.4
08/09:30pm 11.1 8.4 8.8 86 1.1 SE 13 22 7 12 1018.8 1018.8 1.4
08/09:00pm 11.1 8.1 9.2 88 0.9 SE 15 22 8 12 1018.6 1018.6 1.4
08/08:30pm 11.4 8.0 9.3 87 1.1 SE 17 26 9 14 1018.5 1018.5 1.2
08/08:00pm 11.7 8.3 9.1 84 1.3 SE 17 24 9 13 1018.3 1018.3 1.2
08/07:30pm 11.6 9.4 9.2 85 1.2 SSE 11 17 6 9 1018.2 1018.2 1.2
08/07:00pm 11.9 10.0 9.1 83 1.4 SSE 9 19 5 10 1017.8 1017.8 1.2
08/06:30pm 12.1 9.9 9.3 83 1.4 SE 11 20 6 11 1017.6 1017.6 1.2
08/06:00pm 12.3 10.1 9.3 82 1.5 SE 11 17 6 9 1017.2 1017.2 1.2
08/05:30pm 12.5 9.9 9.3 81 1.6 SE 13 20 7 11 1016.8 1016.8 1.2
08/05:00pm 12.7 10.6 9.7 82 1.5 SE 11 17 6 9 1016.4 1016.4 1.2
08/04:30pm 12.9 10.5 10.1 83 1.4 SE 13 28 7 15 1016.3 1016.3 1.2
08/04:00pm 13.3 10.5 10.1 81 1.7 SE 15 32 8 17 1016.2 1016.2 1.2
08/03:30pm 13.3 10.9 10.1 81 1.7 SE 13 20 7 11 1016.0 1016.0 1.2
08/03:00pm 13.3 10.5 10.1 81 1.7 SE 15 26 8 14 1016.2 1016.2 1.2
08/02:30pm 13.2 10.1 10.4 83 1.5 ESE 17 28 9 15 1016.2 1016.2 1.2
08/02:00pm 13.1 9.5 9.9 81 1.6 ESE 19 35 10 19 1016.3 1016.3 1.2
08/01:30pm 12.9 9.8 10.3 84 1.3 ESE 17 30 9 16 1016.6 1016.6 1.2
08/01:00pm 12.8 9.5 9.6 81 1.6 ESE 17 30 9 16 1016.7 1016.7 1.2
08/12:30pm 12.5 9.3 10.0 85 1.3 SE 17 33 9 18 1016.9 1016.9 1.2
08/12:00pm 11.9 8.2 10.0 88 1.0 ESE 20 37 11 20 1017.3 1017.3 1.2
08/11:30am 12.0 8.4 9.7 86 1.2 ESE 19 30 10 16 1017.5 1017.5 1.2
08/11:00am 11.5 8.3 9.8 89 0.9 ESE 17 26 9 14 1017.5 1017.5 1.2
08/10:30am 10.9 8.0 9.5 91 0.7 ESE 15 24 8 13 1017.6 1017.6 1.2
08/10:00am 10.7 7.0 9.3 91 0.7 ESE 19 33 10 18 1017.5 1017.5 1.0
08/09:30am 10.4 7.3 9.0 91 0.7 ESE 15 28 8 15 1017.4 1017.4 0.6
08/09:00am 10.4 6.9 8.7 89 0.8 ESE 17 35 9 19 1017.3 1017.3 6.4
08/08:30am 10.4 7.5 8.3 87 1.0 ESE 13 26 7 14 1017.0 1017.0 6.0
08/08:00am 10.2 6.5 8.0 86 1.1 ESE 17 26 9 14 1016.7 1016.7 5.8
08/07:30am 10.3 6.6 7.9 85 1.2 ESE 17 28 9 15 1016.4 1016.4 5.6
08/07:00am 10.6 6.8 7.7 82 1.4 ESE 17 30 9 16 1016.1 1016.1 5.2
08/06:30am 10.8 7.4 7.5 80 1.6 ESE 15 26 8 14 1016.0 1016.0 5.2
08/06:00am 10.7 6.9 7.6 81 1.5 ESE 17 28 9 15 1015.9 1015.9 5.2
08/05:30am 10.5 7.1 7.7 83 1.3 ESE 15 30 8 16 1015.8 1015.8 5.2
08/05:00am 10.4 6.3 7.8 84 1.3 ESE 19 32 10 17 1015.8 1015.8 5.2
08/04:30am 10.4 6.6 7.6 83 1.3 ESE 17 30 9 16 1015.7 1015.7 5.2
08/04:00am 10.3 6.9 7.7 84 1.2 ESE 15 30 8 16 1015.8 1015.8 5.2
08/03:30am 10.3 6.0 7.9 85 1.2 ESE 20 33 11 18 1015.7 1015.7 5.2
08/03:00am 10.4 5.8 8.0 85 1.2 ESE 22 44 12 24 1015.9 1015.9 5.2
08/02:30am 10.6 6.3 8.0 84 1.3 ESE 20 37 11 20 1016.1 1016.1 5.2
08/02:00am 10.4 6.8 8.2 86 1.1 SE 17 28 9 15 1016.3 1016.3 5.2
08/01:30am 10.0 6.8 8.4 90 0.8 SE 15 24 8 13 1016.5 1016.5 5.2
08/01:00am 9.9 7.9 8.5 91 0.7 SE 9 17 5 9 1016.9 1016.9 5.0
08/12:30am 9.8 7.0 8.6 92 0.6 SE 13 22 7 12 1017.1 1017.1 5.0
08/12:00am 9.7 6.5 8.5 92 0.6 SE 15 22 8 12 1017.3 1017.3 4.8
 
Date/Time
EST
Temp
°C
App
Temp
°C
Dew
Point
°C
Rel
Hum
%
Delta-T
°C
Wind Press
QNH
hPa
Press
MSL
hPa
Rain since
9am
mm
Dir  Spd
km/h
Gust
km/h
Spd
kts
Gust
kts
07/11:30pm 9.7 6.5 8.5 92 0.6 SE 15 26 8 14 1017.6 1017.6 4.6
07/11:00pm 9.6 6.0 8.4 92 0.6 SE 17 24 9 13 1017.8 1017.8 4.2
07/10:30pm 9.6 6.8 8.5 93 0.5 SE 13 20 7 11 1018.3 1018.3 3.8
07/10:00pm 9.7 6.9 8.5 92 0.6 SE 13 22 7 12 1018.6 1018.6 3.0
07/09:30pm 9.7 7.2 8.3 91 0.7 ESE 11 19 6 10 1018.7 1018.7 1.8
07/09:00pm 10.0 7.1 8.1 88 0.9 SE 13 22 7 12 1018.6 1018.6 0.8
07/08:30pm 10.4 7.0 7.8 84 1.3 ESE 15 26 8 14 1018.7 1018.7 0.4
07/08:00pm 10.6 6.4 7.3 80 1.6 ESE 19 37 10 20 1018.4 1018.4 0.2
07/07:30pm 11.3 6.8 6.2 71 2.4 ESE 19 30 10 16 1017.9 1017.9 0.0
07/07:00pm 11.1 6.7 6.6 74 2.1 ESE 19 32 10 17 1017.7 1017.7 0.0
07/06:30pm 11.4 6.8 6.3 71 2.4 SE 20 33 11 18 1017.2 1017.2 0.0

Other formats

Comma delimited format used in spreadsheet applications
http://www.bom.gov.au/fwo/IDV60801/IDV60801.94857.axf

JavaScript Object Notation format (JSON) in row-major order
http://www.bom.gov.au/fwo/IDV60801/IDV60801.94857.json

Data quality

Most of these data are generated automatically and are frequently updated. Quality checks on data are not normally performed. It is possible for incorrect values to appear. Refer to information at About Latest Weather Observations and please check the disclaimer before using these data.